Los Angeles Regional Airport Weather

KWHP 221850Z 12005KT 10SM SKC 27/14 A3003

KAPV 191256Z AUTO 05004KT 10SM FEW075 SCT090 BKN110 18/18 A2996 RMK AO2 SLP144 T01830178 $

KAVX 221551Z AUTO 11/ A3001 RMK AO2 SLPNO T0106 PWINO TSNO PNO $

KBFL 221854Z VRB04KT 10SM CLR 33/13 A2993 RMK AO2 SLP127 T03280128

KBUR 221853Z 14008KT 10SM CLR 26/16 A2999 RMK AO2 SLP143 T02610161 $

KCMA 221855Z 23005KT 9SM CLR 24/16 A2999 RMK AO2 SLP162 T02390161

KCNO 221853Z 00000KT 9SM BKN160 BKN200 28/14 A3000 RMK AO2 SLP152 T02830139

KEMT 221845Z 21003KT 10SM SCT120 25/15 A2999

KFUL 221853Z 26006KT 10SM BKN150 BKN250 26/16 A2998 RMK AO2 SLP151 T02610161

KHHR 221853Z VRB03KT 10SM CLR 24/16 A3000 RMK AO2 SLP156 T02440156 $

KL35 221915Z AUTO 00000KT 10SM BKN085 OVC120 22/06 A3039 RMK AO2

KLAX 221853Z 25006KT 8SM FEW019 SCT090 BKN140 BKN180 23/17 A3000 RMK AO2 SLP157 T02330167 $

KLGB 221853Z 20008KT 10SM CLR 24/16 A3000 RMK AO2 SLP156 T02440161

KONT 221853Z 00000KT 10SM SCT170 BKN190 31/16 A3000 RMK AO2 SLP139 VIRGA NE-E-S ACC W-N T03060161

KOXR 221851Z 26007KT 10SM FEW012 21/16 A2999 RMK AO2 SLP156 T02060156

KPMD 221853Z AUTO 26010KT 10SM CLR 36/04 A3003 RMK AO2 SLP133 T03560044

KPOC 221847Z 28004KT 10 CLR 24/17 A3001

KRAL 221853Z VRB03KT 10SM -RA BKN200 26/18 A2999 RMK AO2 RAB45 SLP140 P0002 T02560178

KSMO 221851Z VRB06KT 10SM CLR 23/17 A3000 RMK AO2 SLP156 T02280172

KSNA 221853Z 20008KT 10SM FEW008 FEW016 BKN100 26/17 A2999 RMK AO2 SLP153 T02560167

KTOA 221859Z 28008KT 10SM HZ SCT018 BKN140 24/17 A3000

KTRM 221852Z AUTO 00000KT 10SM CLR 39/19 A2986 RMK AO2 SLP115 T03940189

KVNY 221851Z 14008KT 10SM FEW120 BKN200 28/15 A2999 RMK AO2 SLP145 T02830150

KWJF 221856Z 24006KT 10SM CLR 37/04 A3001 RMK AO2 SLP137 T03720044



How to read METARs